sensor_id;sensor_type;location;lat;lon;timestamp;P1;durP1;ratioP1;P2;durP2;ratioP2
21183;SDS011;18176;49.502;11.754;2022-12-17T00:03:19;51.23;;;23.73;;
21183;SDS011;18176;49.502;11.754;2022-12-17T00:07:35;50.30;;;23.67;;
21183;SDS011;18176;49.502;11.754;2022-12-17T00:11:49;50.53;;;23.77;;
21183;SDS011;18176;49.502;11.754;2022-12-17T00:16:02;52.67;;;24.83;;
21183;SDS011;18176;49.502;11.754;2022-12-17T00:20:15;48.67;;;23.10;;
21183;SDS011;18176;49.502;11.754;2022-12-17T00:24:31;51.33;;;23.67;;
21183;SDS011;18176;49.502;11.754;2022-12-17T00:28:43;48.13;;;22.40;;
21183;SDS011;18176;49.502;11.754;2022-12-17T00:32:57;50.87;;;23.80;;
21183;SDS011;18176;49.502;11.754;2022-12-17T00:37:11;49.87;;;23.17;;
21183;SDS011;18176;49.502;11.754;2022-12-17T00:41:27;52.43;;;24.27;;
21183;SDS011;18176;49.502;11.754;2022-12-17T00:45:39;56.63;;;25.47;;
21183;SDS011;18176;49.502;11.754;2022-12-17T00:49:54;52.63;;;23.40;;
21183;SDS011;18176;49.502;11.754;2022-12-17T00:54:06;55.40;;;25.87;;
21183;SDS011;18176;49.502;11.754;2022-12-17T00:58:22;53.73;;;23.00;;
21183;SDS011;18176;49.502;11.754;2022-12-17T01:02:35;44.47;;;21.80;;
21183;SDS011;18176;49.502;11.754;2022-12-17T01:06:48;52.30;;;23.50;;
21183;SDS011;18176;49.502;11.754;2022-12-17T01:11:00;50.27;;;22.37;;
21183;SDS011;18176;49.502;11.754;2022-12-17T01:15:19;49.83;;;22.67;;
21183;SDS011;18176;49.502;11.754;2022-12-17T01:19:32;47.97;;;22.77;;
21183;SDS011;18176;49.502;11.754;2022-12-17T01:23:44;48.67;;;22.50;;
21183;SDS011;18176;49.502;11.754;2022-12-17T01:27:57;49.27;;;22.77;;
21183;SDS011;18176;49.502;11.754;2022-12-17T01:32:13;44.83;;;21.17;;
21183;SDS011;18176;49.502;11.754;2022-12-17T01:36:25;45.77;;;22.03;;
21183;SDS011;18176;49.502;11.754;2022-12-17T01:40:38;50.00;;;21.50;;
21183;SDS011;18176;49.502;11.754;2022-12-17T01:44:53;43.50;;;22.10;;
21183;SDS011;18176;49.502;11.754;2022-12-17T01:49:09;48.23;;;21.83;;
21183;SDS011;18176;49.502;11.754;2022-12-17T01:53:24;47.53;;;21.67;;
21183;SDS011;18176;49.502;11.754;2022-12-17T01:57:41;52.43;;;22.57;;
21183;SDS011;18176;49.502;11.754;2022-12-17T02:01:54;47.37;;;21.87;;
21183;SDS011;18176;49.502;11.754;2022-12-17T02:06:20;47.07;;;20.60;;
21183;SDS011;18176;49.502;11.754;2022-12-17T02:10:38;44.60;;;20.93;;
21183;SDS011;18176;49.502;11.754;2022-12-17T02:14:59;47.60;;;21.37;;
21183;SDS011;18176;49.502;11.754;2022-12-17T02:19:23;44.60;;;20.10;;
21183;SDS011;18176;49.502;11.754;2022-12-17T02:23:55;45.73;;;20.90;;
21183;SDS011;18176;49.502;11.754;2022-12-17T02:28:25;36.77;;;18.93;;
21183;SDS011;18176;49.502;11.754;2022-12-17T02:32:39;43.33;;;19.23;;
21183;SDS011;18176;49.502;11.754;2022-12-17T02:36:57;40.30;;;17.97;;
21183;SDS011;18176;49.502;11.754;2022-12-17T02:41:11;41.87;;;18.70;;
21183;SDS011;18176;49.502;11.754;2022-12-17T02:45:30;45.93;;;20.10;;
21183;SDS011;18176;49.502;11.754;2022-12-17T02:49:45;42.53;;;19.50;;
21183;SDS011;18176;49.502;11.754;2022-12-17T02:54:03;41.97;;;19.00;;
21183;SDS011;18176;49.502;11.754;2022-12-17T02:58:16;44.70;;;19.10;;
21183;SDS011;18176;49.502;11.754;2022-12-17T03:02:32;42.10;;;20.50;;
21183;SDS011;18176;49.502;11.754;2022-12-17T03:06:45;37.77;;;18.03;;
21183;SDS011;18176;49.502;11.754;2022-12-17T03:10:57;43.97;;;19.57;;
21183;SDS011;18176;49.502;11.754;2022-12-17T03:15:10;41.53;;;19.77;;
21183;SDS011;18176;49.502;11.754;2022-12-17T03:19:25;44.03;;;20.53;;
21183;SDS011;18176;49.502;11.754;2022-12-17T03:23:38;41.40;;;19.47;;
21183;SDS011;18176;49.502;11.754;2022-12-17T03:27:51;42.00;;;19.27;;
21183;SDS011;18176;49.502;11.754;2022-12-17T03:32:09;39.23;;;18.80;;
21183;SDS011;18176;49.502;11.754;2022-12-17T03:36:24;43.03;;;18.90;;
21183;SDS011;18176;49.502;11.754;2022-12-17T03:40:37;39.80;;;19.10;;
21183;SDS011;18176;49.502;11.754;2022-12-17T03:44:50;43.23;;;19.80;;
21183;SDS011;18176;49.502;11.754;2022-12-17T03:49:02;38.77;;;18.10;;
21183;SDS011;18176;49.502;11.754;2022-12-17T03:53:18;40.07;;;18.80;;
21183;SDS011;18176;49.502;11.754;2022-12-17T03:57:31;38.70;;;18.27;;
21183;SDS011;18176;49.502;11.754;2022-12-17T04:01:44;42.40;;;19.27;;
21183;SDS011;18176;49.502;11.754;2022-12-17T04:05:56;44.70;;;19.53;;
21183;SDS011;18176;49.502;11.754;2022-12-17T04:10:12;44.10;;;20.67;;
21183;SDS011;18176;49.502;11.754;2022-12-17T04:14:25;45.07;;;20.30;;
21183;SDS011;18176;49.502;11.754;2022-12-17T04:18:37;41.50;;;19.50;;
21183;SDS011;18176;49.502;11.754;2022-12-17T04:22:50;45.33;;;20.00;;
21183;SDS011;18176;49.502;11.754;2022-12-17T04:27:05;44.23;;;19.37;;
21183;SDS011;18176;49.502;11.754;2022-12-17T04:31:18;44.60;;;20.17;;
21183;SDS011;18176;49.502;11.754;2022-12-17T04:35:31;43.63;;;20.47;;
21183;SDS011;18176;49.502;11.754;2022-12-17T04:39:43;42.93;;;20.20;;
21183;SDS011;18176;49.502;11.754;2022-12-17T04:43:58;46.23;;;20.67;;
21183;SDS011;18176;49.502;11.754;2022-12-17T04:48:11;47.17;;;19.93;;
21183;SDS011;18176;49.502;11.754;2022-12-17T04:52:24;45.63;;;19.97;;
21183;SDS011;18176;49.502;11.754;2022-12-17T04:56:36;50.47;;;20.90;;
21183;SDS011;18176;49.502;11.754;2022-12-17T05:00:52;47.80;;;20.97;;
21183;SDS011;18176;49.502;11.754;2022-12-17T05:05:06;47.27;;;20.83;;
21183;SDS011;18176;49.502;11.754;2022-12-17T05:09:20;52.27;;;21.47;;
21183;SDS011;18176;49.502;11.754;2022-12-17T05:13:32;47.80;;;21.43;;
21183;SDS011;18176;49.502;11.754;2022-12-17T05:18:02;51.37;;;22.57;;
21183;SDS011;18176;49.502;11.754;2022-12-17T05:22:16;48.00;;;22.07;;
21183;SDS011;18176;49.502;11.754;2022-12-17T05:26:28;50.70;;;22.07;;
21183;SDS011;18176;49.502;11.754;2022-12-17T05:30:41;50.43;;;21.23;;
21183;SDS011;18176;49.502;11.754;2022-12-17T05:34:56;52.60;;;21.77;;
21183;SDS011;18176;49.502;11.754;2022-12-17T05:39:09;49.83;;;21.50;;
21183;SDS011;18176;49.502;11.754;2022-12-17T05:43:22;54.67;;;22.87;;
21183;SDS011;18176;49.502;11.754;2022-12-17T05:47:35;49.33;;;21.73;;
21183;SDS011;18176;49.502;11.754;2022-12-17T05:51:50;57.33;;;24.23;;
21183;SDS011;18176;49.502;11.754;2022-12-17T05:56:03;53.87;;;23.03;;
21183;SDS011;18176;49.502;11.754;2022-12-17T06:00:16;55.40;;;23.40;;
21183;SDS011;18176;49.502;11.754;2022-12-17T06:04:29;50.37;;;21.60;;
21183;SDS011;18176;49.502;11.754;2022-12-17T06:08:44;58.63;;;23.63;;
21183;SDS011;18176;49.502;11.754;2022-12-17T06:12:57;53.07;;;23.20;;
21183;SDS011;18176;49.502;11.754;2022-12-17T06:17:09;55.73;;;23.17;;
21183;SDS011;18176;49.502;11.754;2022-12-17T06:21:22;54.27;;;21.97;;
21183;SDS011;18176;49.502;11.754;2022-12-17T06:25:38;57.90;;;23.67;;
21183;SDS011;18176;49.502;11.754;2022-12-17T06:29:50;54.30;;;23.00;;
21183;SDS011;18176;49.502;11.754;2022-12-17T06:34:03;61.67;;;23.57;;
21183;SDS011;18176;49.502;11.754;2022-12-17T06:38:16;70.07;;;27.53;;
21183;SDS011;18176;49.502;11.754;2022-12-17T06:42:31;86.07;;;31.83;;
21183;SDS011;18176;49.502;11.754;2022-12-17T06:46:44;85.77;;;31.67;;
21183;SDS011;18176;49.502;11.754;2022-12-17T06:50:56;78.30;;;30.30;;
21183;SDS011;18176;49.502;11.754;2022-12-17T06:55:09;78.80;;;30.30;;
21183;SDS011;18176;49.502;11.754;2022-12-17T06:59:24;68.33;;;26.67;;
21183;SDS011;18176;49.502;11.754;2022-12-17T07:03:37;65.77;;;26.33;;
21183;SDS011;18176;49.502;11.754;2022-12-17T07:07:55;61.73;;;24.97;;
21183;SDS011;18176;49.502;11.754;2022-12-17T07:12:08;57.77;;;24.23;;
21183;SDS011;18176;49.502;11.754;2022-12-17T07:16:23;56.63;;;23.37;;
21183;SDS011;18176;49.502;11.754;2022-12-17T07:20:36;70.87;;;28.40;;
21183;SDS011;18176;49.502;11.754;2022-12-17T07:24:49;62.57;;;25.33;;
21183;SDS011;18176;49.502;11.754;2022-12-17T07:29:01;59.40;;;25.40;;
21183;SDS011;18176;49.502;11.754;2022-12-17T07:33:17;62.83;;;24.43;;
21183;SDS011;18176;49.502;11.754;2022-12-17T07:37:30;61.30;;;24.47;;
21183;SDS011;18176;49.502;11.754;2022-12-17T07:41:42;57.57;;;25.30;;
21183;SDS011;18176;49.502;11.754;2022-12-17T07:45:55;57.83;;;24.13;;
21183;SDS011;18176;49.502;11.754;2022-12-17T07:50:10;57.03;;;24.23;;
21183;SDS011;18176;49.502;11.754;2022-12-17T07:54:23;57.73;;;24.07;;
21183;SDS011;18176;49.502;11.754;2022-12-17T07:58:38;64.97;;;27.10;;
21183;SDS011;18176;49.502;11.754;2022-12-17T08:02:55;58.47;;;25.83;;
21183;SDS011;18176;49.502;11.754;2022-12-17T08:07:11;62.40;;;27.13;;
21183;SDS011;18176;49.502;11.754;2022-12-17T08:11:24;54.67;;;25.47;;
21183;SDS011;18176;49.502;11.754;2022-12-17T08:15:37;59.90;;;26.77;;
21183;SDS011;18176;49.502;11.754;2022-12-17T08:19:50;52.53;;;24.47;;
21183;SDS011;18176;49.502;11.754;2022-12-17T08:24:06;52.73;;;24.07;;
21183;SDS011;18176;49.502;11.754;2022-12-17T08:28:18;51.60;;;24.20;;
21183;SDS011;18176;49.502;11.754;2022-12-17T08:32:47;50.90;;;23.20;;
21183;SDS011;18176;49.502;11.754;2022-12-17T08:36:59;50.53;;;25.03;;
21183;SDS011;18176;49.502;11.754;2022-12-17T08:41:15;51.00;;;22.57;;
21183;SDS011;18176;49.502;11.754;2022-12-17T08:45:27;49.97;;;23.63;;
21183;SDS011;18176;49.502;11.754;2022-12-17T08:49:40;47.33;;;22.67;;
21183;SDS011;18176;49.502;11.754;2022-12-17T08:53:53;60.77;;;27.17;;
21183;SDS011;18176;49.502;11.754;2022-12-17T08:58:08;68.30;;;29.47;;
21183;SDS011;18176;49.502;11.754;2022-12-17T09:02:21;97.77;;;42.27;;
21183;SDS011;18176;49.502;11.754;2022-12-17T09:06:35;109.17;;;46.23;;
21183;SDS011;18176;49.502;11.754;2022-12-17T09:10:47;53.53;;;23.67;;
21183;SDS011;18176;49.502;11.754;2022-12-17T09:15:03;44.73;;;21.20;;
21183;SDS011;18176;49.502;11.754;2022-12-17T09:19:17;39.97;;;19.90;;
21183;SDS011;18176;49.502;11.754;2022-12-17T09:23:30;41.43;;;21.30;;
21183;SDS011;18176;49.502;11.754;2022-12-17T09:27:42;47.23;;;23.73;;
21183;SDS011;18176;49.502;11.754;2022-12-17T09:31:58;47.80;;;23.83;;
21183;SDS011;18176;49.502;11.754;2022-12-17T09:36:10;38.47;;;20.53;;
21183;SDS011;18176;49.502;11.754;2022-12-17T09:40:23;39.10;;;20.30;;
21183;SDS011;18176;49.502;11.754;2022-12-17T09:44:37;40.13;;;20.67;;
21183;SDS011;18176;49.502;11.754;2022-12-17T09:49:02;43.40;;;21.60;;
21183;SDS011;18176;49.502;11.754;2022-12-17T09:53:27;38.17;;;19.97;;
21183;SDS011;18176;49.502;11.754;2022-12-17T09:57:47;36.43;;;19.70;;
21183;SDS011;18176;49.502;11.754;2022-12-17T10:02:14;38.47;;;20.37;;
21183;SDS011;18176;49.502;11.754;2022-12-17T10:06:35;37.70;;;20.13;;
21183;SDS011;18176;49.502;11.754;2022-12-17T10:10:47;35.67;;;19.57;;
21183;SDS011;18176;49.502;11.754;2022-12-17T10:15:00;39.43;;;19.90;;
21183;SDS011;18176;49.502;11.754;2022-12-17T10:19:14;33.73;;;17.97;;
21183;SDS011;18176;49.502;11.754;2022-12-17T10:23:41;21.83;;;12.27;;
21183;SDS011;18176;49.502;11.754;2022-12-17T10:27:59;23.40;;;12.83;;
21183;SDS011;18176;49.502;11.754;2022-12-17T10:32:17;22.40;;;12.60;;
21183;SDS011;18176;49.502;11.754;2022-12-17T10:36:34;25.33;;;13.03;;
21183;SDS011;18176;49.502;11.754;2022-12-17T10:40:49;23.93;;;13.17;;
21183;SDS011;18176;49.502;11.754;2022-12-17T10:45:16;22.40;;;12.27;;
21183;SDS011;18176;49.502;11.754;2022-12-17T10:49:32;24.90;;;13.87;;
21183;SDS011;18176;49.502;11.754;2022-12-17T10:54:02;23.33;;;13.80;;
21183;SDS011;18176;49.502;11.754;2022-12-17T10:58:32;25.93;;;13.73;;
21183;SDS011;18176;49.502;11.754;2022-12-17T11:02:46;22.83;;;12.87;;
21183;SDS011;18176;49.502;11.754;2022-12-17T11:06:59;23.40;;;12.50;;
21183;SDS011;18176;49.502;11.754;2022-12-17T11:11:12;24.63;;;13.97;;
21183;SDS011;18176;49.502;11.754;2022-12-17T11:15:30;20.50;;;12.20;;
21183;SDS011;18176;49.502;11.754;2022-12-17T11:19:49;24.60;;;13.13;;
21183;SDS011;18176;49.502;11.754;2022-12-17T11:24:09;21.80;;;12.57;;
21183;SDS011;18176;49.502;11.754;2022-12-17T11:28:31;20.73;;;12.70;;
21183;SDS011;18176;49.502;11.754;2022-12-17T11:32:52;20.67;;;12.13;;
21183;SDS011;18176;49.502;11.754;2022-12-17T11:37:17;22.33;;;12.67;;
21183;SDS011;18176;49.502;11.754;2022-12-17T11:41:33;20.23;;;12.40;;
21183;SDS011;18176;49.502;11.754;2022-12-17T11:46:08;19.50;;;11.80;;
21183;SDS011;18176;49.502;11.754;2022-12-17T11:50:36;19.13;;;11.27;;
21183;SDS011;18176;49.502;11.754;2022-12-17T11:54:59;19.73;;;11.97;;
21183;SDS011;18176;49.502;11.754;2022-12-17T11:59:26;18.60;;;11.13;;
21183;SDS011;18176;49.502;11.754;2022-12-17T12:03:53;17.20;;;10.50;;
21183;SDS011;18176;49.502;11.754;2022-12-17T12:08:25;18.37;;;11.07;;
21183;SDS011;18176;49.502;11.754;2022-12-17T12:12:53;16.17;;;10.10;;
21183;SDS011;18176;49.502;11.754;2022-12-17T12:17:25;18.53;;;11.00;;
21183;SDS011;18176;49.502;11.754;2022-12-17T12:21:54;18.27;;;11.30;;
21183;SDS011;18176;49.502;11.754;2022-12-17T12:26:22;19.90;;;11.57;;
21183;SDS011;18176;49.502;11.754;2022-12-17T12:30:42;17.00;;;11.23;;
21183;SDS011;18176;49.502;11.754;2022-12-17T12:35:11;18.60;;;11.63;;
21183;SDS011;18176;49.502;11.754;2022-12-17T12:39:33;17.43;;;10.40;;
21183;SDS011;18176;49.502;11.754;2022-12-17T12:43:54;16.47;;;11.03;;
21183;SDS011;18176;49.502;11.754;2022-12-17T12:48:14;18.50;;;11.33;;
21183;SDS011;18176;49.502;11.754;2022-12-17T12:52:44;18.63;;;11.73;;
21183;SDS011;18176;49.502;11.754;2022-12-17T12:56:58;17.83;;;12.00;;
21183;SDS011;18176;49.502;11.754;2022-12-17T13:01:13;18.60;;;12.37;;
21183;SDS011;18176;49.502;11.754;2022-12-17T13:05:27;25.63;;;15.70;;
21183;SDS011;18176;49.502;11.754;2022-12-17T13:09:46;22.13;;;14.47;;
21183;SDS011;18176;49.502;11.754;2022-12-17T13:13:48;23.27;;;14.17;;
21183;SDS011;18176;49.502;11.754;2022-12-17T13:17:58;19.77;;;12.93;;
21183;SDS011;18176;49.502;11.754;2022-12-17T13:26:41;23.07;;;15.13;;
21183;SDS011;18176;49.502;11.754;2022-12-17T13:30:43;24.43;;;15.43;;
21183;SDS011;18176;49.502;11.754;2022-12-17T13:34:49;20.97;;;13.97;;
21183;SDS011;18176;49.502;11.754;2022-12-17T13:39:07;18.20;;;11.83;;
21183;SDS011;18176;49.502;11.754;2022-12-17T13:43:26;16.63;;;10.60;;
21183;SDS011;18176;49.502;11.754;2022-12-17T13:47:32;16.30;;;10.13;;
21183;SDS011;18176;49.502;11.754;2022-12-17T13:51:36;17.60;;;11.10;;
21183;SDS011;18176;49.502;11.754;2022-12-17T13:55:37;17.50;;;11.33;;
21183;SDS011;18176;49.502;11.754;2022-12-17T13:59:38;19.63;;;11.80;;
21183;SDS011;18176;49.502;11.754;2022-12-17T14:03:42;18.10;;;11.27;;
21183;SDS011;18176;49.502;11.754;2022-12-17T14:08:07;20.13;;;12.10;;
21183;SDS011;18176;49.502;11.754;2022-12-17T14:12:15;20.13;;;12.40;;
21183;SDS011;18176;49.502;11.754;2022-12-17T14:16:21;20.83;;;13.10;;
21183;SDS011;18176;49.502;11.754;2022-12-17T14:20:22;20.13;;;12.20;;
21183;SDS011;18176;49.502;11.754;2022-12-17T14:24:29;22.50;;;13.30;;
21183;SDS011;18176;49.502;11.754;2022-12-17T14:28:31;21.97;;;13.17;;
21183;SDS011;18176;49.502;11.754;2022-12-17T14:32:34;23.07;;;13.27;;
21183;SDS011;18176;49.502;11.754;2022-12-17T14:36:36;20.73;;;12.67;;
21183;SDS011;18176;49.502;11.754;2022-12-17T14:40:41;19.07;;;12.03;;
21183;SDS011;18176;49.502;11.754;2022-12-17T14:44:47;20.23;;;11.57;;
21183;SDS011;18176;49.502;11.754;2022-12-17T14:48:53;24.10;;;13.10;;
21183;SDS011;18176;49.502;11.754;2022-12-17T14:53:01;18.13;;;11.10;;
21183;SDS011;18176;49.502;11.754;2022-12-17T14:57:25;21.00;;;11.77;;
21183;SDS011;18176;49.502;11.754;2022-12-17T15:01:25;27.27;;;15.40;;
21183;SDS011;18176;49.502;11.754;2022-12-17T15:05:25;36.83;;;19.93;;
21183;SDS011;18176;49.502;11.754;2022-12-17T15:09:26;38.77;;;20.40;;
21183;SDS011;18176;49.502;11.754;2022-12-17T15:13:28;43.77;;;23.30;;
21183;SDS011;18176;49.502;11.754;2022-12-17T15:17:29;39.97;;;21.30;;
21183;SDS011;18176;49.502;11.754;2022-12-17T15:21:29;40.43;;;20.83;;
21183;SDS011;18176;49.502;11.754;2022-12-17T15:25:30;47.40;;;23.97;;
21183;SDS011;18176;49.502;11.754;2022-12-17T15:29:41;47.73;;;23.13;;
21183;SDS011;18176;49.502;11.754;2022-12-17T15:33:42;37.73;;;18.40;;
21183;SDS011;18176;49.502;11.754;2022-12-17T15:37:42;48.20;;;23.30;;
21183;SDS011;18176;49.502;11.754;2022-12-17T15:41:42;55.33;;;26.30;;
21183;SDS011;18176;49.502;11.754;2022-12-17T15:45:59;59.37;;;29.03;;
21183;SDS011;18176;49.502;11.754;2022-12-17T15:49:59;52.40;;;25.40;;
21183;SDS011;18176;49.502;11.754;2022-12-17T15:54:00;49.03;;;23.43;;
21183;SDS011;18176;49.502;11.754;2022-12-17T15:58:00;47.20;;;22.67;;
21183;SDS011;18176;49.502;11.754;2022-12-17T16:02:03;54.07;;;23.43;;
21183;SDS011;18176;49.502;11.754;2022-12-17T16:06:03;59.30;;;29.60;;
21183;SDS011;18176;49.502;11.754;2022-12-17T16:10:05;63.67;;;30.17;;
21183;SDS011;18176;49.502;11.754;2022-12-17T16:14:06;80.73;;;34.37;;
21183;SDS011;18176;49.502;11.754;2022-12-17T16:18:08;71.03;;;32.67;;
21183;SDS011;18176;49.502;11.754;2022-12-17T16:22:08;53.57;;;23.00;;
21183;SDS011;18176;49.502;11.754;2022-12-17T16:26:09;48.07;;;23.67;;
21183;SDS011;18176;49.502;11.754;2022-12-17T16:30:10;57.90;;;26.90;;
21183;SDS011;18176;49.502;11.754;2022-12-17T16:34:15;65.83;;;28.20;;
21183;SDS011;18176;49.502;11.754;2022-12-17T16:38:15;61.93;;;25.93;;
21183;SDS011;18176;49.502;11.754;2022-12-17T16:42:16;75.37;;;31.33;;
21183;SDS011;18176;49.502;11.754;2022-12-17T16:46:23;74.67;;;32.80;;
21183;SDS011;18176;49.502;11.754;2022-12-17T16:50:29;85.33;;;37.60;;
21183;SDS011;18176;49.502;11.754;2022-12-17T16:54:30;71.30;;;31.47;;
21183;SDS011;18176;49.502;11.754;2022-12-17T16:58:31;64.53;;;28.70;;
21183;SDS011;18176;49.502;11.754;2022-12-17T17:02:31;67.30;;;30.17;;
21183;SDS011;18176;49.502;11.754;2022-12-17T17:06:34;74.70;;;33.13;;
21183;SDS011;18176;49.502;11.754;2022-12-17T17:10:37;91.67;;;41.73;;
21183;SDS011;18176;49.502;11.754;2022-12-17T17:14:38;81.30;;;38.50;;
21183;SDS011;18176;49.502;11.754;2022-12-17T17:18:39;99.30;;;44.73;;
21183;SDS011;18176;49.502;11.754;2022-12-17T17:22:42;89.30;;;41.20;;
21183;SDS011;18176;49.502;11.754;2022-12-17T17:26:42;77.77;;;35.10;;
21183;SDS011;18176;49.502;11.754;2022-12-17T17:30:42;79.07;;;36.03;;
21183;SDS011;18176;49.502;11.754;2022-12-17T17:34:43;83.23;;;38.67;;
21183;SDS011;18176;49.502;11.754;2022-12-17T17:38:46;89.63;;;40.40;;
21183;SDS011;18176;49.502;11.754;2022-12-17T17:42:48;84.53;;;38.07;;
21183;SDS011;18176;49.502;11.754;2022-12-17T17:46:48;83.60;;;39.50;;
21183;SDS011;18176;49.502;11.754;2022-12-17T17:50:58;89.23;;;39.03;;
21183;SDS011;18176;49.502;11.754;2022-12-17T17:55:02;80.93;;;37.13;;
21183;SDS011;18176;49.502;11.754;2022-12-17T17:59:04;72.43;;;34.43;;
21183;SDS011;18176;49.502;11.754;2022-12-17T18:03:06;77.03;;;34.43;;
21183;SDS011;18176;49.502;11.754;2022-12-17T18:07:07;72.03;;;30.83;;
21183;SDS011;18176;49.502;11.754;2022-12-17T18:11:27;65.50;;;31.00;;
21183;SDS011;18176;49.502;11.754;2022-12-17T18:15:29;81.93;;;36.23;;
21183;SDS011;18176;49.502;11.754;2022-12-17T18:19:29;85.20;;;37.53;;
21183;SDS011;18176;49.502;11.754;2022-12-17T18:23:29;80.57;;;36.07;;
21183;SDS011;18176;49.502;11.754;2022-12-17T18:27:32;107.83;;;43.07;;
21183;SDS011;18176;49.502;11.754;2022-12-17T18:31:32;116.53;;;47.23;;
21183;SDS011;18176;49.502;11.754;2022-12-17T18:35:32;88.90;;;36.97;;
21183;SDS011;18176;49.502;11.754;2022-12-17T18:39:33;105.80;;;42.67;;
21183;SDS011;18176;49.502;11.754;2022-12-17T18:43:38;117.37;;;45.30;;
21183;SDS011;18176;49.502;11.754;2022-12-17T18:47:38;125.03;;;49.67;;
21183;SDS011;18176;49.502;11.754;2022-12-17T18:51:41;109.30;;;43.50;;
21183;SDS011;18176;49.502;11.754;2022-12-17T18:55:44;104.33;;;41.13;;
21183;SDS011;18176;49.502;11.754;2022-12-17T18:59:47;91.73;;;39.23;;
21183;SDS011;18176;49.502;11.754;2022-12-17T19:03:47;83.83;;;35.80;;
21183;SDS011;18176;49.502;11.754;2022-12-17T19:07:48;89.77;;;37.13;;
21183;SDS011;18176;49.502;11.754;2022-12-17T19:11:48;84.07;;;34.50;;
21183;SDS011;18176;49.502;11.754;2022-12-17T19:15:52;103.47;;;41.07;;
21183;SDS011;18176;49.502;11.754;2022-12-17T19:19:53;100.03;;;41.30;;
21183;SDS011;18176;49.502;11.754;2022-12-17T19:23:54;85.63;;;37.40;;
21183;SDS011;18176;49.502;11.754;2022-12-17T19:27:56;87.80;;;35.80;;
21183;SDS011;18176;49.502;11.754;2022-12-17T19:31:59;93.80;;;38.93;;
21183;SDS011;18176;49.502;11.754;2022-12-17T19:36:00;91.23;;;40.17;;
21183;SDS011;18176;49.502;11.754;2022-12-17T19:40:04;90.37;;;37.43;;
21183;SDS011;18176;49.502;11.754;2022-12-17T19:44:07;84.83;;;36.63;;
21183;SDS011;18176;49.502;11.754;2022-12-17T19:48:13;91.17;;;38.93;;
21183;SDS011;18176;49.502;11.754;2022-12-17T19:52:14;111.03;;;42.30;;
21183;SDS011;18176;49.502;11.754;2022-12-17T19:56:15;110.50;;;45.03;;
21183;SDS011;18176;49.502;11.754;2022-12-17T20:00:18;116.23;;;44.23;;
21183;SDS011;18176;49.502;11.754;2022-12-17T20:04:21;100.30;;;39.30;;
21183;SDS011;18176;49.502;11.754;2022-12-17T20:08:21;76.90;;;33.13;;
21183;SDS011;18176;49.502;11.754;2022-12-17T20:12:22;72.50;;;31.47;;
21183;SDS011;18176;49.502;11.754;2022-12-17T20:16:22;79.93;;;33.97;;
21183;SDS011;18176;49.502;11.754;2022-12-17T20:20:25;83.00;;;34.83;;
21183;SDS011;18176;49.502;11.754;2022-12-17T20:24:25;75.03;;;31.40;;
21183;SDS011;18176;49.502;11.754;2022-12-17T20:28:27;79.73;;;32.80;;
21183;SDS011;18176;49.502;11.754;2022-12-17T20:32:27;73.30;;;32.40;;
21183;SDS011;18176;49.502;11.754;2022-12-17T20:36:30;69.60;;;29.70;;
21183;SDS011;18176;49.502;11.754;2022-12-17T20:40:31;67.83;;;30.53;;
21183;SDS011;18176;49.502;11.754;2022-12-17T20:44:31;68.90;;;30.57;;
21183;SDS011;18176;49.502;11.754;2022-12-17T20:48:31;73.67;;;31.33;;
21183;SDS011;18176;49.502;11.754;2022-12-17T20:52:35;76.93;;;31.67;;
21183;SDS011;18176;49.502;11.754;2022-12-17T20:56:36;70.30;;;27.77;;
21183;SDS011;18176;49.502;11.754;2022-12-17T21:00:37;61.33;;;25.97;;
21183;SDS011;18176;49.502;11.754;2022-12-17T21:04:38;73.77;;;31.03;;
21183;SDS011;18176;49.502;11.754;2022-12-17T21:08:41;102.57;;;41.73;;
21183;SDS011;18176;49.502;11.754;2022-12-17T21:12:46;101.13;;;39.10;;
21183;SDS011;18176;49.502;11.754;2022-12-17T21:16:58;85.37;;;35.97;;
21183;SDS011;18176;49.502;11.754;2022-12-17T21:21:01;90.63;;;37.20;;
21183;SDS011;18176;49.502;11.754;2022-12-17T21:25:07;95.60;;;37.30;;
21183;SDS011;18176;49.502;11.754;2022-12-17T21:29:08;94.37;;;37.37;;
21183;SDS011;18176;49.502;11.754;2022-12-17T21:33:09;85.60;;;35.93;;
21183;SDS011;18176;49.502;11.754;2022-12-17T21:37:10;88.23;;;38.30;;
21183;SDS011;18176;49.502;11.754;2022-12-17T21:41:13;79.77;;;35.83;;
21183;SDS011;18176;49.502;11.754;2022-12-17T21:45:17;80.53;;;32.37;;
21183;SDS011;18176;49.502;11.754;2022-12-17T21:49:17;71.97;;;30.73;;
21183;SDS011;18176;49.502;11.754;2022-12-17T21:53:18;71.87;;;29.07;;
21183;SDS011;18176;49.502;11.754;2022-12-17T21:57:21;72.70;;;30.73;;
21183;SDS011;18176;49.502;11.754;2022-12-17T22:01:22;92.10;;;35.50;;
21183;SDS011;18176;49.502;11.754;2022-12-17T22:05:24;97.43;;;37.43;;
21183;SDS011;18176;49.502;11.754;2022-12-17T22:09:24;101.90;;;35.83;;
21183;SDS011;18176;49.502;11.754;2022-12-17T22:13:47;94.17;;;34.53;;
21183;SDS011;18176;49.502;11.754;2022-12-17T22:18:14;95.27;;;34.43;;
21183;SDS011;18176;49.502;11.754;2022-12-17T22:22:14;104.83;;;36.87;;
21183;SDS011;18176;49.502;11.754;2022-12-17T22:26:14;97.40;;;34.90;;
21183;SDS011;18176;49.502;11.754;2022-12-17T22:30:19;93.23;;;34.00;;
21183;SDS011;18176;49.502;11.754;2022-12-17T22:34:32;85.87;;;32.37;;
21183;SDS011;18176;49.502;11.754;2022-12-17T22:38:52;87.17;;;34.37;;
21183;SDS011;18176;49.502;11.754;2022-12-17T22:43:12;95.73;;;32.47;;
21183;SDS011;18176;49.502;11.754;2022-12-17T22:47:50;75.47;;;27.03;;
21183;SDS011;18176;49.502;11.754;2022-12-17T22:51:50;85.37;;;27.37;;
21183;SDS011;18176;49.502;11.754;2022-12-17T22:55:50;65.70;;;25.37;;
21183;SDS011;18176;49.502;11.754;2022-12-17T22:59:52;78.03;;;30.63;;
21183;SDS011;18176;49.502;11.754;2022-12-17T23:03:55;70.17;;;27.53;;
21183;SDS011;18176;49.502;11.754;2022-12-17T23:07:57;64.57;;;25.83;;
21183;SDS011;18176;49.502;11.754;2022-12-17T23:11:58;60.00;;;23.73;;
21183;SDS011;18176;49.502;11.754;2022-12-17T23:16:19;58.33;;;22.23;;
21183;SDS011;18176;49.502;11.754;2022-12-17T23:20:22;63.13;;;24.80;;
21183;SDS011;18176;49.502;11.754;2022-12-17T23:24:25;61.30;;;24.13;;
21183;SDS011;18176;49.502;11.754;2022-12-17T23:28:25;62.17;;;23.60;;
21183;SDS011;18176;49.502;11.754;2022-12-17T23:32:25;50.83;;;21.93;;
21183;SDS011;18176;49.502;11.754;2022-12-17T23:36:28;64.90;;;22.50;;
21183;SDS011;18176;49.502;11.754;2022-12-17T23:40:28;64.60;;;22.53;;
21183;SDS011;18176;49.502;11.754;2022-12-17T23:44:28;83.87;;;22.93;;
21183;SDS011;18176;49.502;11.754;2022-12-17T23:48:28;82.50;;;23.57;;
21183;SDS011;18176;49.502;11.754;2022-12-17T23:52:32;59.10;;;22.80;;
21183;SDS011;18176;49.502;11.754;2022-12-17T23:56:32;65.97;;;23.20;;
